createdAt,value
2023-04-19T00:01:41.813Z,4.30
2023-04-19T00:04:11.051Z,4.25
2023-04-19T00:06:40.915Z,4.32
2023-04-19T00:09:08.754Z,4.22
2023-04-19T00:11:36.552Z,4.07
2023-04-19T00:14:04.303Z,3.95
2023-04-19T00:16:32.233Z,3.63
2023-04-19T00:18:59.983Z,4.20
2023-04-19T00:21:29.050Z,3.72
2023-04-19T00:23:56.788Z,3.80
2023-04-19T00:26:24.576Z,3.75
2023-04-19T00:28:52.307Z,4.47
2023-04-19T00:31:20.452Z,3.55
2023-04-19T00:33:48.226Z,3.90
2023-04-19T00:36:15.982Z,3.83
2023-04-19T00:38:45.098Z,3.42
2023-04-19T00:41:12.837Z,4.00
2023-04-19T00:43:40.734Z,3.88
2023-04-19T00:46:08.554Z,3.83
2023-04-19T00:48:37.055Z,3.50
2023-04-19T00:51:05.373Z,3.40
2023-04-19T00:53:33.209Z,3.45
2023-04-19T00:56:05.401Z,3.78
2023-04-19T00:58:33.485Z,3.40
2023-04-19T01:01:01.425Z,3.95
2023-04-19T01:03:29.516Z,3.33
2023-04-19T01:05:58.334Z,3.65
2023-04-19T01:08:26.119Z,3.83
2023-04-19T01:10:53.958Z,3.40
2023-04-19T01:13:23.242Z,3.50
2023-04-19T01:15:51.436Z,3.50
2023-04-19T01:18:19.384Z,3.33
2023-04-19T01:20:47.197Z,3.60
2023-04-19T01:23:16.806Z,3.20
2023-04-19T01:25:47.597Z,3.40
2023-04-19T01:28:15.553Z,3.60
2023-04-19T01:30:43.948Z,3.60
2023-04-19T01:33:11.707Z,3.65
2023-04-19T01:35:39.794Z,3.67
2023-04-19T01:38:07.589Z,3.53
2023-04-19T01:40:36.737Z,3.00
2023-04-19T01:43:04.481Z,3.88
2023-04-19T01:45:33.875Z,3.83
2023-04-19T01:48:03.036Z,3.20
2023-04-19T01:50:30.878Z,3.58
2023-04-19T01:52:58.631Z,3.40
2023-04-19T01:55:26.515Z,3.22
2023-04-19T01:57:55.885Z,3.50
2023-04-19T02:00:23.984Z,3.67
2023-04-19T02:02:51.968Z,3.53
2023-04-19T02:05:19.861Z,3.85
2023-04-19T02:07:47.669Z,3.38
2023-04-19T02:10:15.443Z,3.30
2023-04-19T02:12:43.594Z,3.35
2023-04-19T02:15:13.120Z,3.30
2023-04-19T02:17:41.444Z,3.22
2023-04-19T02:20:10.766Z,3.75
2023-04-19T02:22:38.569Z,3.55
2023-04-19T02:25:07.064Z,3.45
2023-04-19T02:27:34.848Z,3.15
2023-04-19T02:30:02.981Z,3.08
2023-04-19T02:32:32.380Z,3.20
2023-04-19T02:35:00.285Z,3.17
2023-04-19T02:37:28.078Z,3.60
2023-04-19T02:39:55.856Z,3.30
2023-04-19T02:42:23.594Z,3.00
2023-04-19T02:44:51.328Z,3.42
2023-04-19T02:47:19.103Z,3.30
2023-04-19T02:49:48.243Z,3.45
2023-04-19T02:52:16.032Z,3.00
2023-04-19T02:54:43.794Z,3.30
2023-04-19T02:57:11.555Z,3.25
2023-04-19T02:59:39.426Z,2.90
2023-04-19T03:02:07.323Z,3.35
2023-04-19T03:04:36.476Z,3.25
2023-04-19T03:07:06.041Z,3.60
2023-04-19T03:09:33.819Z,3.35
2023-04-19T03:12:02.048Z,3.75
2023-04-19T03:14:29.804Z,3.35
2023-04-19T03:16:57.560Z,3.47
2023-04-19T03:19:25.414Z,3.22
2023-04-19T03:21:53.177Z,2.95
2023-04-19T03:24:28.978Z,3.33
2023-04-19T03:26:56.721Z,3.22
2023-04-19T03:29:24.574Z,3.35
2023-04-19T03:31:52.369Z,3.03
2023-04-19T03:34:20.099Z,3.25
2023-04-19T03:36:48.887Z,3.15
2023-04-19T03:39:16.669Z,3.13
2023-04-19T03:41:45.834Z,3.30
2023-04-19T03:44:13.914Z,3.42
2023-04-19T03:46:42.060Z,2.80
2023-04-19T03:49:12.400Z,3.20
2023-04-19T03:51:40.504Z,3.00
2023-04-19T03:54:08.742Z,3.22
2023-04-19T03:56:36.476Z,3.20
2023-04-19T03:59:05.628Z,2.88
2023-04-19T04:01:34.175Z,2.78
2023-04-19T04:04:04.659Z,2.90
2023-04-19T04:06:32.763Z,3.13
2023-04-19T04:09:00.489Z,3.40
2023-04-19T04:11:28.384Z,2.97
2023-04-19T04:14:01.056Z,3.47
2023-04-19T04:16:30.190Z,3.50
2023-04-19T04:18:58.078Z,3.28
2023-04-19T04:21:27.023Z,3.22
2023-04-19T04:23:54.930Z,3.22
2023-04-19T04:26:25.148Z,3.20
2023-04-19T04:28:53.796Z,3.40
2023-04-19T04:31:21.748Z,3.33
2023-04-19T04:33:51.044Z,3.08
2023-04-19T04:36:18.885Z,3.38
2023-04-19T04:38:46.814Z,3.03
2023-04-19T04:41:14.658Z,2.72
2023-04-19T04:43:42.620Z,3.42
2023-04-19T04:46:10.514Z,3.33
2023-04-19T04:48:38.358Z,3.10
2023-04-19T04:51:07.594Z,3.10
2023-04-19T04:53:35.342Z,3.17
2023-04-19T04:56:03.136Z,2.80
2023-04-19T04:58:32.821Z,3.25
2023-04-19T05:01:05.802Z,2.95
2023-04-19T05:03:33.581Z,3.38
2023-04-19T05:06:01.618Z,3.35
2023-04-19T05:08:30.945Z,3.28
2023-04-19T05:10:58.914Z,3.15
2023-04-19T05:13:26.795Z,3.03
2023-04-19T05:15:54.820Z,3.30
2023-04-19T05:18:22.698Z,2.83
2023-04-19T05:20:50.642Z,3.25
2023-04-19T05:23:18.639Z,3.47
2023-04-19T05:25:47.883Z,2.83
2023-04-19T05:28:15.775Z,3.30
2023-04-19T05:30:44.103Z,3.20
2023-04-19T05:33:12.405Z,3.13
2023-04-19T05:35:40.282Z,3.30
2023-04-19T05:38:08.061Z,3.38
2023-04-19T05:40:36.432Z,3.40
2023-04-19T05:43:05.532Z,3.13
2023-04-19T05:45:33.334Z,3.40
2023-04-19T05:48:01.151Z,3.33
2023-04-19T05:50:28.964Z,3.42
2023-04-19T05:52:56.698Z,3.33
2023-04-19T05:55:24.675Z,3.50
2023-04-19T05:57:52.377Z,3.10
2023-04-19T06:00:21.869Z,3.10
2023-04-19T06:02:49.727Z,3.38
2023-04-19T06:05:17.715Z,3.25
2023-04-19T06:07:54.538Z,3.25
2023-04-19T06:10:33.713Z,3.00
2023-04-19T06:13:08.872Z,3.33
2023-04-19T06:15:39.962Z,3.70
2023-04-19T06:18:10.291Z,3.30
2023-04-19T06:20:46.958Z,2.97
2023-04-19T06:23:15.439Z,3.00
2023-04-19T06:25:43.337Z,3.22
2023-04-19T06:28:11.139Z,3.25
2023-04-19T06:30:40.224Z,3.28
2023-04-19T06:33:08.074Z,3.30
2023-04-19T06:35:35.805Z,2.92
2023-04-19T06:38:03.572Z,2.95
2023-04-19T06:40:31.677Z,3.10
2023-04-19T06:42:59.422Z,2.58
2023-04-19T06:45:27.273Z,3.17
2023-04-19T06:47:56.416Z,3.20
2023-04-19T06:50:24.563Z,3.03
2023-04-19T06:52:52.293Z,3.40
2023-04-19T06:55:20.020Z,2.92
2023-04-19T06:57:47.748Z,2.67
2023-04-19T07:00:16.344Z,2.92
2023-04-19T07:02:44.318Z,2.85
2023-04-19T07:05:13.768Z,3.00
2023-04-19T07:07:42.113Z,3.15
2023-04-19T07:10:10.647Z,2.80
2023-04-19T07:12:38.398Z,2.97
2023-04-19T07:15:06.838Z,2.88
2023-04-19T07:17:35.951Z,3.20
2023-04-19T07:20:08.135Z,3.00
2023-04-19T07:22:37.228Z,2.80
2023-04-19T07:25:05.677Z,2.65
2023-04-19T07:27:33.437Z,3.00
2023-04-19T07:30:01.181Z,3.00
2023-04-19T07:32:28.962Z,2.95
2023-04-19T07:34:56.838Z,3.00
2023-04-19T07:37:24.565Z,2.90
2023-04-19T07:39:53.651Z,3.10
2023-04-19T07:42:21.464Z,2.80
2023-04-19T07:44:49.295Z,2.60
2023-04-19T07:47:17.169Z,2.78
2023-04-19T07:49:44.971Z,2.78
2023-04-19T07:52:12.739Z,3.17
2023-04-19T07:54:40.557Z,2.65
2023-04-19T07:57:09.625Z,2.45
2023-04-19T07:59:37.351Z,2.88
2023-04-19T08:02:05.675Z,2.80
2023-04-19T08:04:33.796Z,3.03
2023-04-19T08:07:03.748Z,2.75
2023-04-19T08:09:31.643Z,2.88
2023-04-19T08:11:59.391Z,2.53
2023-04-19T08:14:38.040Z,2.50
2023-04-19T08:17:22.150Z,2.72
2023-04-19T08:19:52.303Z,2.67
2023-04-19T08:22:21.161Z,2.60
2023-04-19T08:24:51.356Z,2.92
2023-04-19T08:27:19.306Z,2.60
2023-04-19T08:29:48.405Z,2.80
2023-04-19T08:32:16.189Z,2.20
2023-04-19T08:34:43.987Z,2.40
2023-04-19T08:37:11.713Z,2.60
2023-04-19T08:39:40.717Z,2.53
2023-04-19T08:42:18.421Z,2.38
2023-04-19T08:45:22.663Z,2.60
2023-04-19T08:47:58.806Z,2.67
2023-04-19T08:53:15.720Z,2.47
2023-04-19T08:58:36.479Z,2.33
2023-04-19T09:01:19.916Z,2.55
2023-04-19T09:04:04.970Z,2.75
2023-04-19T09:06:44.720Z,2.35
2023-04-19T09:09:33.288Z,2.38
2023-04-19T09:12:03.562Z,2.70
2023-04-19T09:14:31.369Z,2.35
2023-04-19T09:17:17.709Z,2.35
2023-04-19T09:19:49.358Z,2.30
2023-04-19T09:22:17.941Z,2.40
2023-04-19T09:27:26.024Z,2.42
2023-04-19T09:29:57.367Z,2.15
2023-04-19T09:32:27.919Z,2.47
2023-04-19T09:34:57.871Z,2.30
2023-04-19T09:37:51.495Z,2.50
2023-04-19T09:40:25.597Z,2.63
2023-04-19T09:48:08.334Z,2.40
2023-04-19T09:50:46.805Z,2.45
2023-04-19T09:53:18.936Z,2.63
2023-04-19T09:55:57.657Z,2.10
2023-04-19T09:58:46.146Z,2.33
2023-04-19T10:01:17.921Z,2.28
2023-04-19T10:03:51.305Z,2.15
2023-04-19T10:08:51.910Z,2.25
2023-04-19T10:11:22.427Z,2.45
2023-04-19T10:13:53.412Z,2.20
2023-04-19T10:16:21.661Z,2.00
2023-04-19T10:18:52.325Z,2.20
2023-04-19T10:21:21.464Z,2.53
2023-04-19T10:23:49.515Z,2.33
2023-04-19T10:26:17.282Z,2.80
2023-04-19T10:28:45.063Z,2.08
2023-04-19T10:31:13.935Z,2.10
2023-04-19T10:33:42.737Z,2.30
2023-04-19T10:36:15.646Z,2.17
2023-04-19T10:38:47.119Z,2.25
2023-04-19T10:41:17.471Z,2.00
2023-04-19T10:43:48.062Z,2.00
2023-04-19T10:46:36.799Z,2.20
2023-04-19T10:49:05.952Z,2.65
2023-04-19T10:51:37.246Z,2.10
2023-04-19T10:54:06.503Z,2.20
2023-04-19T10:57:11.447Z,2.67
2023-04-19T10:59:42.788Z,2.40
2023-04-19T11:02:29.445Z,2.17
2023-04-19T11:05:04.173Z,2.30
2023-04-19T11:07:41.862Z,2.22
2023-04-19T11:10:12.577Z,2.17
2023-04-19T11:12:44.802Z,2.42
2023-04-19T11:15:12.833Z,2.10
2023-04-19T11:17:41.677Z,2.13
2023-04-19T11:20:11.179Z,2.03
2023-04-19T11:22:41.635Z,2.53
2023-04-19T11:25:12.015Z,2.10
2023-04-19T11:27:41.410Z,2.20
2023-04-19T11:30:13.231Z,2.20
2023-04-19T11:32:48.134Z,2.25
2023-04-19T11:35:19.238Z,2.38
2023-04-19T11:37:48.481Z,2.17
2023-04-19T11:40:17.294Z,2.47
2023-04-19T11:42:45.498Z,2.50
2023-04-19T11:45:30.364Z,2.20
2023-04-19T11:48:00.928Z,2.22
2023-04-19T11:50:33.957Z,2.05
2023-04-19T11:53:11.736Z,2.05
2023-04-19T11:55:39.781Z,2.28
2023-04-19T11:58:09.565Z,2.28
2023-04-19T12:00:37.795Z,1.98
2023-04-19T12:03:06.128Z,2.35
2023-04-19T12:05:34.581Z,2.40
2023-04-19T12:08:06.711Z,2.25
2023-04-19T12:10:35.499Z,2.20
2023-04-19T12:13:18.729Z,2.10
2023-04-19T12:15:48.953Z,2.28
2023-04-19T12:18:16.706Z,2.30
2023-04-19T12:20:47.083Z,2.20
2023-04-19T12:23:16.780Z,2.45
2023-04-19T12:25:46.147Z,2.60
2023-04-19T12:28:14.948Z,2.30
2023-04-19T12:30:44.314Z,2.33
2023-04-19T12:33:12.463Z,2.47
2023-04-19T12:35:40.953Z,2.30
2023-04-19T12:38:09.454Z,2.10
2023-04-19T12:40:38.572Z,2.50
2023-04-19T12:43:08.331Z,2.38
2023-04-19T12:45:36.111Z,2.63
2023-04-19T12:48:03.929Z,2.33
2023-04-19T12:50:31.806Z,2.22
2023-04-19T12:52:59.600Z,2.40
2023-04-19T12:55:27.591Z,2.33
2023-04-19T12:57:56.782Z,2.50
2023-04-19T13:00:25.040Z,2.50
2023-04-19T13:02:56.276Z,2.40
2023-04-19T13:05:24.653Z,2.50
2023-04-19T13:07:52.487Z,2.35
2023-04-19T13:10:21.029Z,2.40
2023-04-19T13:12:48.883Z,2.70
2023-04-19T13:15:18.205Z,2.53
2023-04-19T13:17:46.228Z,2.70
2023-04-19T13:20:14.372Z,2.50
2023-04-19T13:22:43.688Z,2.83
2023-04-19T13:25:11.751Z,2.50
2023-04-19T13:27:39.635Z,2.70
2023-04-19T13:30:08.889Z,2.67
2023-04-19T13:32:38.060Z,2.50
2023-04-19T13:35:06.609Z,2.90
2023-04-19T13:37:34.343Z,2.72
2023-04-19T13:40:15.296Z,2.60
2023-04-19T13:42:46.288Z,2.90
2023-04-19T13:45:15.398Z,2.42
2023-04-19T13:47:44.527Z,2.72
2023-04-19T13:50:12.841Z,2.80
2023-04-19T13:52:40.619Z,2.97
2023-04-19T13:55:08.989Z,2.83
2023-04-19T13:57:36.781Z,2.75
2023-04-19T14:00:05.252Z,2.70
2023-04-19T14:02:33.532Z,2.70
2023-04-19T14:05:03.646Z,2.45
2023-04-19T14:07:32.416Z,2.80
2023-04-19T14:10:00.199Z,2.35
2023-04-19T14:12:28.055Z,2.70
2023-04-19T14:14:55.821Z,3.00
2023-04-19T14:17:23.514Z,3.50
2023-04-19T14:19:51.368Z,3.35
2023-04-19T14:22:20.573Z,3.35
2023-04-19T14:24:48.366Z,3.25
2023-04-19T14:27:16.287Z,3.60
2023-04-19T14:29:44.045Z,3.17
2023-04-19T14:32:24.946Z,3.33
2023-04-19T14:34:54.772Z,3.10
2023-04-19T14:37:25.872Z,3.05
2023-04-19T14:39:53.669Z,2.70
2023-04-19T14:42:23.102Z,3.13
2023-04-19T14:44:52.874Z,3.25
2023-04-19T14:47:21.243Z,2.80
2023-04-19T14:49:51.212Z,3.00
2023-04-19T14:52:18.992Z,3.00
2023-04-19T14:54:48.229Z,2.72
2023-04-19T14:57:16.209Z,2.90
2023-04-19T14:59:44.105Z,3.17
2023-04-19T15:02:13.239Z,3.20
2023-04-19T15:04:41.855Z,3.00
2023-04-19T15:07:10.640Z,2.97
2023-04-19T15:09:38.407Z,3.78
2023-04-19T15:12:07.679Z,3.20
2023-04-19T15:14:35.607Z,3.03
2023-04-19T15:17:03.905Z,3.58
2023-04-19T15:19:31.908Z,3.33
2023-04-19T15:21:59.663Z,3.10
2023-04-19T15:24:27.439Z,3.05
2023-04-19T15:26:56.445Z,3.22
2023-04-19T15:29:25.589Z,3.45
2023-04-19T15:31:53.469Z,2.90
2023-04-19T15:34:21.363Z,3.30
2023-04-19T15:36:49.116Z,3.03
2023-04-19T15:39:22.764Z,3.47
2023-04-19T15:41:50.588Z,3.42
2023-04-19T15:44:18.362Z,3.15
2023-04-19T15:46:47.521Z,3.90
2023-04-19T15:49:15.603Z,3.22
2023-04-19T15:51:43.916Z,2.95
2023-04-19T15:54:15.563Z,3.40
2023-04-19T15:56:43.637Z,3.35
2023-04-19T15:59:45.253Z,3.83
2023-04-19T16:02:30.477Z,3.33
2023-04-19T16:04:58.578Z,3.38
2023-04-19T16:07:29.141Z,3.03
2023-04-19T16:09:56.847Z,3.35
2023-04-19T16:12:25.671Z,2.90
2023-04-19T16:14:56.057Z,3.28
2023-04-19T16:17:25.236Z,3.35
2023-04-19T16:19:56.091Z,3.42
2023-04-19T16:22:26.603Z,3.60
2023-04-19T16:24:54.308Z,3.78
2023-04-19T16:27:22.044Z,3.17
2023-04-19T16:29:51.781Z,3.33
2023-04-19T16:32:19.537Z,3.05
2023-04-19T16:34:51.075Z,3.20
2023-04-19T16:37:19.531Z,3.70
2023-04-19T16:39:47.308Z,3.83
2023-04-19T16:42:15.427Z,4.15
2023-04-19T16:44:43.158Z,3.15
2023-04-19T16:47:10.899Z,3.60
2023-04-19T16:49:38.640Z,3.70
2023-04-19T16:52:07.786Z,3.58
2023-04-19T16:54:35.849Z,3.30
2023-04-19T16:57:03.586Z,3.58
2023-04-19T16:59:31.482Z,3.63
2023-04-19T17:02:02.015Z,3.63
2023-04-19T17:04:32.307Z,3.30
2023-04-19T17:07:00.216Z,3.15
2023-04-19T17:09:29.517Z,3.53
2023-04-19T17:11:57.837Z,3.45
2023-04-19T17:14:25.726Z,3.08
2023-04-19T17:16:53.440Z,3.60
2023-04-19T17:19:21.211Z,3.80
2023-04-19T17:21:48.958Z,3.38
2023-04-19T17:24:19.990Z,3.90
2023-04-19T17:26:49.898Z,3.20
2023-04-19T17:29:17.878Z,3.30
2023-04-19T17:31:45.956Z,3.30
2023-04-19T17:34:13.746Z,3.33
2023-04-19T17:36:47.648Z,3.22
2023-04-19T17:39:15.705Z,3.33
2023-04-19T17:41:47.588Z,3.50
2023-04-19T17:44:16.679Z,3.10
2023-04-19T17:46:44.554Z,3.20
2023-04-19T17:49:12.911Z,2.95
2023-04-19T17:51:40.687Z,3.35
2023-04-19T17:54:19.170Z,3.10
2023-04-19T17:56:48.806Z,2.97
2023-04-19T17:59:17.988Z,3.00
2023-04-19T18:01:45.933Z,3.28
2023-04-19T18:04:17.621Z,3.15
2023-04-19T18:06:48.150Z,2.97
2023-04-19T18:09:16.563Z,3.10
2023-04-19T18:11:44.983Z,2.70
2023-04-19T18:14:12.741Z,2.97
2023-04-19T18:16:45.452Z,2.95
2023-04-19T18:19:19.332Z,2.75
2023-04-19T18:21:47.173Z,3.13
2023-04-19T18:24:15.339Z,3.10
2023-04-19T18:26:43.942Z,3.05
2023-04-19T18:29:12.264Z,3.42
2023-04-19T18:31:41.390Z,3.38
2023-04-19T18:34:10.631Z,3.28
2023-04-19T18:36:40.156Z,3.30
2023-04-19T18:39:07.991Z,3.35
2023-04-19T18:41:38.879Z,4.55
2023-04-19T18:44:34.730Z,3.95
2023-04-19T18:46:56.590Z,3.53
2023-04-19T18:49:26.941Z,4.57
2023-04-19T18:51:54.918Z,4.10
2023-04-19T18:54:24.158Z,4.68
2023-04-19T18:59:23.814Z,4.07
2023-04-19T19:01:52.368Z,4.13
2023-04-19T19:04:42.793Z,3.67
2023-04-19T19:07:27.775Z,3.50
2023-04-19T19:10:06.325Z,4.00
2023-04-19T19:12:42.882Z,4.30
2023-04-19T19:15:11.527Z,4.25
2023-04-19T19:17:39.427Z,4.00
2023-04-19T19:20:10.772Z,3.92
2023-04-19T19:22:39.060Z,4.40
2023-04-19T19:25:13.105Z,4.05
2023-04-19T19:27:41.064Z,4.20
2023-04-19T19:30:15.742Z,3.97
2023-04-19T19:32:43.614Z,3.88
2023-04-19T19:35:12.784Z,4.32
2023-04-19T19:37:40.738Z,4.40
2023-04-19T19:40:15.160Z,4.32
2023-04-19T19:42:43.282Z,4.30
2023-04-19T19:45:14.416Z,4.50
2023-04-19T19:47:45.421Z,4.43
2023-04-19T19:52:47.816Z,4.15
2023-04-19T19:55:18.778Z,4.18
2023-04-19T20:00:39.902Z,4.13
2023-04-19T20:03:06.833Z,4.30
2023-04-19T20:05:36.580Z,4.05
2023-04-19T20:08:10.091Z,4.38
2023-04-19T20:10:38.770Z,4.43
2023-04-19T20:13:08.954Z,4.70
2023-04-19T20:15:38.122Z,3.92
2023-04-19T20:18:06.443Z,4.93
2023-04-19T20:20:34.212Z,4.53
2023-04-19T20:23:03.367Z,4.72
2023-04-19T20:25:32.413Z,4.53
2023-04-19T20:28:00.250Z,4.18
2023-04-19T20:30:28.077Z,4.30
2023-04-19T20:32:55.823Z,4.43
2023-04-19T20:35:24.023Z,4.10
2023-04-19T20:37:51.769Z,4.53
2023-04-19T20:40:22.816Z,4.63
2023-04-19T20:42:51.386Z,4.00
2023-04-19T20:45:19.972Z,4.03
2023-04-19T20:47:48.481Z,4.80
2023-04-19T20:50:16.303Z,4.13
2023-04-19T20:52:44.040Z,4.22
2023-04-19T20:55:11.847Z,4.43
2023-04-19T20:57:40.915Z,4.18
2023-04-19T21:00:10.485Z,4.03
2023-04-19T21:02:38.502Z,3.67
2023-04-19T21:05:07.072Z,4.30
2023-04-19T21:07:34.894Z,4.38
2023-04-19T21:10:02.622Z,4.75
2023-04-19T21:12:30.501Z,4.38
2023-04-19T21:14:59.602Z,4.55
2023-04-19T21:17:27.403Z,4.10
2023-04-19T21:19:55.239Z,4.20
2023-04-19T21:22:22.997Z,3.60
2023-04-19T21:24:50.743Z,4.00
2023-04-19T21:27:18.528Z,3.75
2023-04-19T21:29:46.333Z,3.92
2023-04-19T21:32:15.728Z,4.18
2023-04-19T21:34:44.508Z,3.95
2023-04-19T21:37:12.266Z,3.70
2023-04-19T21:39:42.196Z,4.20
2023-04-19T21:42:09.898Z,3.65
2023-04-19T21:44:39.573Z,3.83
2023-04-19T21:47:07.777Z,3.80
2023-04-19T21:49:36.854Z,3.58
2023-04-19T21:52:05.228Z,4.00
2023-04-19T21:54:34.541Z,3.63
2023-04-19T21:57:02.903Z,4.00
2023-04-19T21:59:31.387Z,3.90
2023-04-19T22:01:59.713Z,3.85
2023-04-19T22:04:30.824Z,3.55
2023-04-19T22:07:03.756Z,3.42
2023-04-19T22:09:34.037Z,4.10
2023-04-19T22:12:09.277Z,3.63
2023-04-19T22:14:37.316Z,3.67
2023-04-19T22:17:06.105Z,3.47
2023-04-19T22:19:34.110Z,3.90
2023-04-19T22:22:03.169Z,3.88
2023-04-19T22:24:30.964Z,4.18
2023-04-19T22:26:58.784Z,4.45
2023-04-19T22:29:26.513Z,3.80
2023-04-19T22:31:54.266Z,3.92
2023-04-19T22:34:22.379Z,3.63
2023-04-19T22:36:50.236Z,4.07
2023-04-19T22:39:19.638Z,4.15
2023-04-19T22:41:47.390Z,4.50
2023-04-19T22:44:15.192Z,4.38
2023-04-19T22:46:43.713Z,4.03
2023-04-19T22:49:11.517Z,4.18
2023-04-19T22:51:39.392Z,4.43
2023-04-19T22:54:07.284Z,4.20
2023-04-19T22:56:36.400Z,3.83
2023-04-19T22:59:04.145Z,3.97
2023-04-19T23:01:32.000Z,3.85
2023-04-19T23:04:02.299Z,3.88
2023-04-19T23:06:32.364Z,3.53
2023-04-19T23:09:00.572Z,4.13
2023-04-19T23:11:29.779Z,3.78
2023-04-19T23:13:58.961Z,3.80
2023-04-19T23:16:28.662Z,4.10
2023-04-19T23:18:56.677Z,4.18
2023-04-19T23:21:24.407Z,3.92
2023-04-19T23:23:54.128Z,3.60
2023-04-19T23:26:22.018Z,3.40
2023-04-19T23:28:49.735Z,3.70
2023-04-19T23:31:18.940Z,3.55
2023-04-19T23:33:46.775Z,3.13
2023-04-19T23:36:14.568Z,3.40
2023-04-19T23:38:42.314Z,3.30
2023-04-19T23:41:28.422Z,3.53
2023-04-19T23:43:57.828Z,3.20
2023-04-19T23:46:26.994Z,3.45
2023-04-19T23:48:54.768Z,2.70
2023-04-19T23:51:22.591Z,3.13
2023-04-19T23:53:50.490Z,3.42
2023-04-19T23:56:18.229Z,3.15
2023-04-19T23:58:46.119Z,3.13
